MAPLE82 KSAV-KLAL
Flight info
| Callsign | MAPLE82 |
|---|---|
| Flight time | 0h 42m |
| Altitude | 21000 |
| Route | KSAV DCT ISUZO Q409 PUPYY Q103 CYNTA DCT MMOSS DCT ELITE DCT DOWNO DCT JODON DCT WANDD DCT OLENE DCT JKBAL DCT MOLIE DCT SANTR DCT FAZES DCT KLAL |
| Aircraft | F35/M-DILORT/L |
Departure
| Time | 2026-04-21 23:19 |
|---|---|
| Airport | Savannah Hilton Head International Airport (KSAV) |
Arrival
| Time | 2026-04-22 00:01 |
|---|---|
| Airport | Lakeland Linder International Airport (KLAL) |
| Time | Latitude | Longitude | Altitude | Speed | Heading |
|---|---|---|---|---|---|
| 2026-04-21 23:04 | 32.12646 | -81.19244 | 43 ft | 0 kts | 330° |
| 2026-04-21 23:13 | 32.12651 | -81.19247 | 62 ft | 8 kts | 328° |
| 2026-04-21 23:13 | 32.12669 | -81.19335 | 62 ft | 15 kts | 270° |
| 2026-04-21 23:14 | 32.12688 | -81.19439 | 62 ft | 12 kts | 282° |
| 2026-04-21 23:14 | 32.12692 | -81.19584 | 54 ft | 22 kts | 270° |
| 2026-04-21 23:14 | 32.12696 | -81.19771 | 54 ft | 23 kts | 278° |
| 2026-04-21 23:14 | 32.12729 | -81.19925 | 52 ft | 17 kts | 289° |
| 2026-04-21 23:15 | 32.12751 | -81.20093 | 50 ft | 23 kts | 270° |
| 2026-04-21 23:15 | 32.12752 | -81.20294 | 48 ft | 28 kts | 268° |
| 2026-04-21 23:15 | 32.12755 | -81.20519 | 48 ft | 27 kts | 271° |
| 2026-04-21 23:15 | 32.12756 | -81.20733 | 48 ft | 25 kts | 266° |
| 2026-04-21 23:16 | 32.12760 | -81.20918 | 49 ft | 20 kts | 270° |
| 2026-04-21 23:16 | 32.12760 | -81.21093 | 48 ft | 26 kts | 270° |
| 2026-04-21 23:16 | 32.12761 | -81.21344 | 45 ft | 33 kts | 271° |
| 2026-04-21 23:16 | 32.12763 | -81.21545 | 40 ft | 25 kts | 267° |
| 2026-04-21 23:17 | 32.12764 | -81.21773 | 34 ft | 24 kts | 271° |
| 2026-04-21 23:17 | 32.12769 | -81.21823 | 33 ft | 0 kts | 285° |
| 2026-04-21 23:17 | 32.12771 | -81.21829 | 33 ft | 5 kts | 292° |
| 2026-04-21 23:18 | 32.12793 | -81.21851 | 32 ft | 2 kts | 339° |
| 2026-04-21 23:18 | 32.12871 | -81.21799 | 35 ft | 15 kts | 96° |
| 2026-04-21 23:18 | 32.12858 | -81.21068 | 53 ft | 194 kts | 90° |
| 2026-04-21 23:18 | 32.12839 | -81.18828 | 591 ft | 347 kts | 90° |
| 2026-04-21 23:19 | 32.12236 | -81.15752 | 2763 ft | 427 kts | 146° |
| 2026-04-21 23:19 | 32.09075 | -81.15183 | 2961 ft | 522 kts | 174° |
| 2026-04-21 23:19 | 32.05685 | -81.15531 | 3326 ft | 371 kts | 201° |
| 2026-04-21 23:19 | 32.03747 | -81.16562 | 3556 ft | 329 kts | 204° |
| 2026-04-21 23:20 | 32.01327 | -81.17936 | 4393 ft | 408 kts | 210° |
| 2026-04-21 23:20 | 31.99130 | -81.19572 | 5195 ft | 348 kts | 217° |
| 2026-04-21 23:20 | 31.97885 | -81.20692 | 5814 ft | 342 kts | 220° |
| 2026-04-21 23:20 | 31.95382 | -81.23414 | 6864 ft | 392 kts | 228° |
| 2026-04-21 23:21 | 31.93641 | -81.25735 | 7594 ft | 379 kts | 232° |
| 2026-04-21 23:21 | 31.92043 | -81.28232 | 8363 ft | 375 kts | 237° |
| 2026-04-21 23:21 | 31.91000 | -81.29885 | 8843 ft | 388 kts | 231° |
| 2026-04-21 23:21 | 31.89113 | -81.32278 | 9661 ft | 401 kts | 227° |
| 2026-04-21 23:22 | 31.87151 | -81.34562 | 10446 ft | 402 kts | 225° |
| 2026-04-21 23:22 | 31.85068 | -81.36785 | 11183 ft | 400 kts | 223° |
| 2026-04-21 23:22 | 31.82958 | -81.38871 | 11896 ft | 399 kts | 220° |
| 2026-04-21 23:22 | 31.80754 | -81.40860 | 12631 ft | 399 kts | 219° |
| 2026-04-21 23:23 | 31.78524 | -81.42820 | 13340 ft | 410 kts | 218° |
| 2026-04-21 23:23 | 31.76096 | -81.45014 | 14170 ft | 458 kts | 223° |
| 2026-04-21 23:23 | 31.73903 | -81.47443 | 14921 ft | 406 kts | 227° |
| 2026-04-21 23:23 | 31.71938 | -81.49663 | 15576 ft | 397 kts | 225° |
| 2026-04-21 23:24 | 31.69717 | -81.51964 | 16289 ft | 441 kts | 222° |
| 2026-04-21 23:24 | 31.67395 | -81.54338 | 17050 ft | 443 kts | 224° |
| 2026-04-21 23:24 | 31.65078 | -81.56724 | 17896 ft | 445 kts | 224° |
| 2026-04-21 23:24 | 31.62743 | -81.59129 | 18618 ft | 441 kts | 224° |
| 2026-04-21 23:25 | 31.60489 | -81.61508 | 19376 ft | 434 kts | 225° |
| 2026-04-21 23:25 | 31.58214 | -81.63926 | 20103 ft | 444 kts | 224° |
| 2026-04-21 23:25 | 31.55889 | -81.66357 | 20603 ft | 454 kts | 224° |
| 2026-04-21 23:25 | 31.53508 | -81.68859 | 20883 ft | 463 kts | 224° |
| 2026-04-21 23:26 | 31.51095 | -81.71343 | 20962 ft | 462 kts | 224° |
| 2026-04-21 23:26 | 31.48761 | -81.73765 | 20952 ft | 440 kts | 224° |
| 2026-04-21 23:26 | 31.46505 | -81.76122 | 20959 ft | 429 kts | 225° |
| 2026-04-21 23:26 | 31.44268 | -81.78473 | 20965 ft | 438 kts | 224° |
| 2026-04-21 23:27 | 31.41711 | -81.80534 | 20904 ft | 459 kts | 208° |
| 2026-04-21 23:27 | 31.38767 | -81.82151 | 20905 ft | 484 kts | 205° |
| 2026-04-21 23:27 | 31.35551 | -81.83679 | 20941 ft | 485 kts | 204° |
| 2026-04-21 23:27 | 31.32545 | -81.84927 | 20947 ft | 437 kts | 199° |
| 2026-04-21 23:28 | 31.29579 | -81.85830 | 20875 ft | 455 kts | 196° |
| 2026-04-21 23:28 | 31.26398 | -81.86919 | 20930 ft | 494 kts | 200° |
| 2026-04-21 23:28 | 31.23215 | -81.88040 | 20948 ft | 449 kts | 199° |
| 2026-04-21 23:28 | 31.20140 | -81.89063 | 20957 ft | 470 kts | 198° |
| 2026-04-21 23:29 | 31.17100 | -81.90079 | 20918 ft | 421 kts | 200° |
| 2026-04-21 23:29 | 31.14278 | -81.91093 | 20932 ft | 446 kts | 199° |
| 2026-04-21 23:29 | 31.11116 | -81.92161 | 21010 ft | 499 kts | 198° |
| 2026-04-21 23:29 | 31.07841 | -81.93270 | 20952 ft | 449 kts | 199° |
| 2026-04-21 23:30 | 31.04986 | -81.94241 | 20862 ft | 408 kts | 199° |
| 2026-04-21 23:30 | 31.02212 | -81.95209 | 20842 ft | 451 kts | 199° |
| 2026-04-21 23:30 | 30.99096 | -81.96279 | 20863 ft | 452 kts | 197° |
| 2026-04-21 23:30 | 30.96068 | -81.97338 | 20865 ft | 481 kts | 200° |
| 2026-04-21 23:31 | 30.92606 | -81.98543 | 20931 ft | 509 kts | 197° |
| 2026-04-21 23:31 | 30.89621 | -81.99533 | 20929 ft | 448 kts | 200° |
| 2026-04-21 23:31 | 30.86485 | -82.00646 | 20959 ft | 493 kts | 199° |
| 2026-04-21 23:31 | 30.83192 | -82.01704 | 20954 ft | 471 kts | 198° |
| 2026-04-21 23:32 | 30.80153 | -82.02733 | 20946 ft | 449 kts | 199° |
| 2026-04-21 23:32 | 30.77109 | -82.03777 | 20990 ft | 464 kts | 199° |
| 2026-04-21 23:32 | 30.73990 | -82.04841 | 20947 ft | 470 kts | 199° |
| 2026-04-21 23:32 | 30.70997 | -82.05858 | 20912 ft | 431 kts | 200° |
| 2026-04-21 23:33 | 30.68055 | -82.06885 | 20941 ft | 456 kts | 200° |
| 2026-04-21 23:33 | 30.64972 | -82.07949 | 20961 ft | 470 kts | 199° |
| 2026-04-21 23:33 | 30.61863 | -82.08958 | 20947 ft | 441 kts | 198° |
| 2026-04-21 23:33 | 30.58943 | -82.10013 | 20888 ft | 442 kts | 204° |
| 2026-04-21 23:34 | 30.55988 | -82.11270 | 20942 ft | 467 kts | 202° |
| 2026-04-21 23:34 | 30.52855 | -82.12422 | 20952 ft | 463 kts | 199° |
| 2026-04-21 23:34 | 30.49891 | -82.13481 | 20954 ft | 428 kts | 202° |
| 2026-04-21 23:34 | 30.46999 | -82.14605 | 20957 ft | 456 kts | 201° |
| 2026-04-21 23:35 | 30.43899 | -82.15817 | 20957 ft | 468 kts | 202° |
| 2026-04-21 23:35 | 30.40964 | -82.16915 | 20957 ft | 421 kts | 199° |
| 2026-04-21 23:35 | 30.38100 | -82.17803 | 20943 ft | 452 kts | 198° |
| 2026-04-21 23:35 | 30.34769 | -82.18931 | 20945 ft | 550 kts | 199° |
| 2026-04-21 23:36 | 30.31183 | -82.20169 | 21017 ft | 444 kts | 199° |
| 2026-04-21 23:36 | 30.28647 | -82.20993 | 20723 ft | 349 kts | 199° |
| 2026-04-21 23:36 | 30.25861 | -82.21885 | 19627 ft | 476 kts | 198° |
| 2026-04-21 23:36 | 30.22486 | -82.22977 | 18880 ft | 496 kts | 196° |
| 2026-04-21 23:37 | 30.19239 | -82.23917 | 18144 ft | 465 kts | 195° |
| 2026-04-21 23:37 | 30.16155 | -82.24506 | 17308 ft | 444 kts | 187° |
| 2026-04-21 23:37 | 30.13058 | -82.24903 | 16528 ft | 437 kts | 190° |
| 2026-04-21 23:37 | 30.10128 | -82.25493 | 15810 ft | 428 kts | 191° |
| 2026-04-21 23:38 | 30.07213 | -82.26027 | 15101 ft | 420 kts | 188° |
| 2026-04-21 23:38 | 30.04339 | -82.26508 | 14468 ft | 414 kts | 189° |
| 2026-04-21 23:38 | 30.01486 | -82.27031 | 14217 ft | 412 kts | 189° |
| 2026-04-21 23:38 | 29.98669 | -82.27540 | 14047 ft | 415 kts | 188° |
| 2026-04-21 23:39 | 29.95820 | -82.28039 | 13978 ft | 412 kts | 188° |
| 2026-04-21 23:39 | 29.92973 | -82.28549 | 13926 ft | 424 kts | 188° |
| 2026-04-21 23:39 | 29.90033 | -82.29066 | 13983 ft | 426 kts | 188° |
| 2026-04-21 23:39 | 29.87161 | -82.29547 | 13943 ft | 405 kts | 188° |
| 2026-04-21 23:40 | 29.84342 | -82.30060 | 13920 ft | 432 kts | 188° |
| 2026-04-21 23:40 | 29.81255 | -82.30567 | 14008 ft | 440 kts | 185° |
| 2026-04-21 23:40 | 29.78325 | -82.30652 | 13971 ft | 409 kts | 179° |
| 2026-04-21 23:40 | 29.75483 | -82.30591 | 13964 ft | 415 kts | 178° |
| 2026-04-21 23:41 | 29.72451 | -82.30372 | 13963 ft | 444 kts | 169° |
| 2026-04-21 23:41 | 29.69462 | -82.29687 | 13962 ft | 433 kts | 168° |
| 2026-04-21 23:41 | 29.66560 | -82.29103 | 13963 ft | 424 kts | 171° |
| 2026-04-21 23:41 | 29.63651 | -82.28647 | 14005 ft | 419 kts | 172° |
| 2026-04-21 23:42 | 29.60761 | -82.28131 | 13727 ft | 424 kts | 170° |
| 2026-04-21 23:42 | 29.57864 | -82.27584 | 12948 ft | 421 kts | 170° |
| 2026-04-21 23:42 | 29.54997 | -82.27049 | 12347 ft | 409 kts | 170° |
| 2026-04-21 23:42 | 29.52239 | -82.26537 | 12077 ft | 394 kts | 170° |
| 2026-04-21 23:43 | 29.49529 | -82.26038 | 11989 ft | 398 kts | 170° |
| 2026-04-21 23:43 | 29.46670 | -82.25552 | 11977 ft | 426 kts | 171° |
| 2026-04-21 23:43 | 29.43830 | -82.25041 | 11957 ft | 401 kts | 166° |
| 2026-04-21 23:43 | 29.41020 | -82.24243 | 11996 ft | 465 kts | 165° |
| 2026-04-21 23:44 | 29.37933 | -82.23441 | 12003 ft | 436 kts | 168° |
| 2026-04-21 23:44 | 29.35104 | -82.22778 | 11991 ft | 410 kts | 167° |
| 2026-04-21 23:44 | 29.32391 | -82.22077 | 11980 ft | 396 kts | 167° |
| 2026-04-21 23:44 | 29.29645 | -82.21391 | 11991 ft | 425 kts | 167° |
| 2026-04-21 23:45 | 29.26765 | -82.20659 | 11989 ft | 412 kts | 167° |
| 2026-04-21 23:45 | 29.21199 | -82.19255 | 11987 ft | 393 kts | 167° |
| 2026-04-21 23:45 | 29.18582 | -82.18671 | 11958 ft | 377 kts | 173° |
| 2026-04-21 23:46 | 29.15772 | -82.18518 | 11972 ft | 442 kts | 179° |
| 2026-04-21 23:46 | 29.12740 | -82.18586 | 11993 ft | 421 kts | 182° |
| 2026-04-21 23:46 | 29.09910 | -82.18773 | 11982 ft | 402 kts | 183° |
| 2026-04-21 23:46 | 29.07096 | -82.19247 | 11972 ft | 408 kts | 191° |
| 2026-04-21 23:47 | 29.04366 | -82.19925 | 11972 ft | 393 kts | 191° |
| 2026-04-21 23:47 | 29.01725 | -82.20455 | 11937 ft | 386 kts | 188° |
| 2026-04-21 23:47 | 28.98878 | -82.20966 | 11938 ft | 444 kts | 189° |
| 2026-04-21 23:47 | 28.95936 | -82.21544 | 11236 ft | 397 kts | 190° |
| 2026-04-21 23:48 | 28.93160 | -82.22087 | 10513 ft | 416 kts | 188° |
| 2026-04-21 23:48 | 28.90399 | -82.22601 | 9736 ft | 388 kts | 189° |
| 2026-04-21 23:48 | 28.87774 | -82.23137 | 9114 ft | 381 kts | 190° |
| 2026-04-21 23:48 | 28.85221 | -82.23661 | 8496 ft | 363 kts | 189° |
| 2026-04-21 23:49 | 28.82792 | -82.24156 | 7902 ft | 346 kts | 189° |
| 2026-04-21 23:49 | 28.80466 | -82.24625 | 7313 ft | 334 kts | 189° |
| 2026-04-21 23:49 | 28.78276 | -82.25060 | 6751 ft | 272 kts | 188° |
| 2026-04-21 23:49 | 28.76602 | -82.25399 | 6822 ft | 231 kts | 189° |
| 2026-04-21 23:50 | 28.74563 | -82.25699 | 7743 ft | 366 kts | 182° |
| 2026-04-21 23:50 | 28.71513 | -82.25601 | 8651 ft | 469 kts | 173° |
| 2026-04-21 23:50 | 28.68301 | -82.25027 | 8993 ft | 492 kts | 169° |
| 2026-04-21 23:50 | 28.64715 | -82.24261 | 9152 ft | 548 kts | 168° |
| 2026-04-21 23:51 | 28.61503 | -82.23438 | 8975 ft | 367 kts | 162° |
| 2026-04-21 23:51 | 28.59119 | -82.22345 | 8913 ft | 382 kts | 156° |
| 2026-04-21 23:51 | 28.56569 | -82.21121 | 8910 ft | 421 kts | 156° |
| 2026-04-21 23:51 | 28.53814 | -82.19801 | 8985 ft | 387 kts | 156° |
| 2026-04-21 23:52 | 28.51309 | -82.18606 | 8992 ft | 393 kts | 156° |
| 2026-04-21 23:52 | 28.48876 | -82.17458 | 8992 ft | 374 kts | 157° |
| 2026-04-21 23:52 | 28.46380 | -82.16273 | 9017 ft | 397 kts | 157° |
| 2026-04-21 23:52 | 28.43970 | -82.15147 | 9028 ft | 371 kts | 156° |
| 2026-04-21 23:53 | 28.41491 | -82.13976 | 9036 ft | 385 kts | 156° |
| 2026-04-21 23:53 | 28.39082 | -82.12835 | 8994 ft | 371 kts | 156° |
| 2026-04-21 23:53 | 28.36591 | -82.11655 | 9025 ft | 406 kts | 156° |
| 2026-04-21 23:53 | 28.34017 | -82.10424 | 9041 ft | 381 kts | 157° |
| 2026-04-21 23:54 | 28.31654 | -82.09314 | 9041 ft | 364 kts | 156° |
| 2026-04-21 23:54 | 28.29349 | -82.08237 | 8835 ft | 366 kts | 157° |
| 2026-04-21 23:54 | 28.26829 | -82.07049 | 8092 ft | 392 kts | 156° |
| 2026-04-21 23:54 | 28.24395 | -82.05900 | 7375 ft | 366 kts | 156° |
| 2026-04-21 23:55 | 28.22093 | -82.04842 | 6695 ft | 354 kts | 155° |
| 2026-04-21 23:55 | 28.19780 | -82.03777 | 5929 ft | 366 kts | 155° |
| 2026-04-21 23:55 | 28.17435 | -82.02686 | 5157 ft | 358 kts | 156° |
| 2026-04-21 23:55 | 28.15084 | -82.01939 | 4362 ft | 346 kts | 166° |
| 2026-04-21 23:56 | 28.13521 | -82.01618 | 3898 ft | 343 kts | 168° |
| 2026-04-21 23:56 | 28.10358 | -82.01373 | 3248 ft | 336 kts | 175° |
| 2026-04-21 23:56 | 28.08834 | -82.01420 | 3127 ft | 327 kts | 180° |
| 2026-04-21 23:56 | 28.05437 | -82.01699 | 3085 ft | 384 kts | 181° |
| 2026-04-21 23:57 | 28.02923 | -82.01903 | 3104 ft | 346 kts | 180° |
| 2026-04-21 23:57 | 28.00613 | -82.02082 | 3060 ft | 320 kts | 179° |
| 2026-04-21 23:57 | 27.98437 | -82.02245 | 3017 ft | 309 kts | 180° |
| 2026-04-21 23:57 | 27.97019 | -82.02351 | 2993 ft | 315 kts | 179° |
| 2026-04-21 23:58 | 27.95207 | -82.03170 | 2714 ft | 254 kts | 272° |
| 2026-04-21 23:58 | 27.95279 | -82.05798 | 2342 ft | 270 kts | 273° |
| 2026-04-21 23:58 | 27.95366 | -82.07911 | 2175 ft | 258 kts | 273° |
| 2026-04-21 23:58 | 27.95830 | -82.09565 | 1859 ft | 176 kts | 339° |
| 2026-04-21 23:59 | 27.96465 | -82.09739 | 1585 ft | 127 kts | 9° |
| 2026-04-21 23:59 | 27.97665 | -82.09590 | 829 ft | 169 kts | 30° |
| 2026-04-21 23:59 | 27.98686 | -82.08711 | 1091 ft | 165 kts | 67° |
| 2026-04-21 23:59 | 27.98944 | -82.07633 | 878 ft | 127 kts | 90° |
| 2026-04-22 00:00 | 27.98960 | -82.07019 | 531 ft | 122 kts | 89° |
| 2026-04-22 00:00 | 27.98963 | -82.06643 | 521 ft | 166 kts | 91° |
| 2026-04-22 00:01 | 27.98926 | -82.02276 | 142 ft | 49 kts | 90° |
| 2026-04-22 00:01 | 27.98922 | -82.01436 | 144 ft | 52 kts | 89° |
| 2026-04-22 00:01 | 27.98924 | -82.01063 | 145 ft | 41 kts | 89° |
| 2026-04-22 00:03 | 27.98637 | -82.00936 | 143 ft | 19 kts | 251° |
| 2026-04-22 00:03 | 27.98606 | -82.01021 | 142 ft | 8 kts | 246° |
| 2026-04-22 00:03 | 27.98593 | -82.01059 | 142 ft | 1 kts | 246° |
| 2026-04-22 00:04 | 27.98568 | -82.01136 | 143 ft | 20 kts | 253° |
| 2026-04-22 00:05 | 27.98530 | -82.01255 | 145 ft | 13 kts | 242° |
| 2026-04-22 00:05 | 27.98511 | -82.01349 | 146 ft | 15 kts | 294° |
| 2026-04-22 00:05 | 27.98510 | -82.01487 | 146 ft | 21 kts | 250° |
| 2026-04-22 00:05 | 27.98428 | -82.01615 | 147 ft | 20 kts | 232° |
| 2026-04-22 00:06 | 27.98345 | -82.01720 | 147 ft | 14 kts | 213° |
| 2026-04-22 00:06 | 27.98328 | -82.01827 | 146 ft | 23 kts | 268° |
| 2026-04-22 00:06 | 27.98325 | -82.01972 | 148 ft | 13 kts | 274° |
| 2026-04-22 00:06 | 27.98379 | -82.01974 | 148 ft | 17 kts | 46° |
| 2026-04-22 00:07 | 27.98475 | -82.01865 | 150 ft | 13 kts | 47° |
| 2026-04-22 00:07 | 27.98510 | -82.01830 | 151 ft | 0 kts | 358° |
| 2026-04-22 00:07 | 27.98514 | -82.01835 | 151 ft | 0 kts | 310° |